Time;durP1;ratioP1;P1;durP2;ratioP2;P2;SDS_P1;SDS_P2;PMS_P1;PMS_P2;Temp;Humidity;BMP_temperature;BMP_pressure;BME280_temperature;BME280_humidity;BME280_pressure;Samples;Min_cycle;Max_cycle;Signal;HPM_P1;HPM_P2
2021/07/06 00:01:08;;;;;;;1.23;1.13;;;15.30;99.90;;;;;;4968235;28;20393;-82
2021/07/06 00:03:34;;;;;;;1.27;1.17;;;15.20;99.90;;;;;;4957370;28;20555;-82
2021/07/06 00:05:59;;;;;;;1.17;1.02;;;15.20;99.90;;;;;;4977363;28;20034;-82
2021/07/06 00:08:25;;;;;;;1.55;1.30;;;15.20;99.90;;;;;;4986120;28;20038;-82
2021/07/06 00:10:51;;;;;;;1.55;1.27;;;15.20;99.90;;;;;;4985612;28;20035;-82
2021/07/06 00:13:17;;;;;;;1.38;1.25;;;15.20;99.90;;;;;;4964634;28;20081;-82
2021/07/06 00:15:43;;;;;;;1.65;1.13;;;15.20;99.90;;;;;;4979257;28;20039;-82
2021/07/06 00:18:09;;;;;;;1.25;1.10;;;15.20;99.90;;;;;;4984021;28;20402;-82
2021/07/06 00:20:34;;;;;;;1.23;1.13;;;15.10;99.90;;;;;;4975704;28;20062;-82
2021/07/06 00:23:03;;;;;;;1.88;1.23;;;15.10;99.90;;;;;;4978021;28;20045;-82
2021/07/06 00:25:30;;;;;;;1.35;1.25;;;15.10;99.90;;;;;;4969684;28;20114;-82
2021/07/06 00:27:56;;;;;;;2.75;1.17;;;15.10;99.90;;;;;;4985022;28;20041;-82
2021/07/06 00:30:23;;;;;;;5.30;1.27;;;15.20;99.90;;;;;;4961787;28;20027;-82
2021/07/06 00:32:49;;;;;;;1.17;1.00;;;15.10;99.90;;;;;;4988411;28;20114;-82
2021/07/06 00:35:16;;;;;;;3.33;1.45;;;15.10;99.90;;;;;;4987969;28;20054;-82
2021/07/06 00:37:41;;;;;;;1.70;1.13;;;15.00;99.90;;;;;;4986286;28;20496;-83
2021/07/06 00:40:08;;;;;;;0.90;0.90;;;15.00;99.90;;;;;;4979782;28;20125;-82
2021/07/06 00:42:38;;;;;;;3.70;1.02;;;14.90;99.90;;;;;;4957357;28;20105;-82
2021/07/06 00:45:05;;;;;;;1.02;1.00;;;14.90;99.90;;;;;;4987601;28;20030;-82
2021/07/06 00:47:33;;;;;;;2.75;1.00;;;14.80;99.90;;;;;;4950615;28;20121;-82
2021/07/06 00:50:00;;;;;;;1.15;1.05;;;14.80;99.90;;;;;;4986762;28;20097;-82
2021/07/06 00:52:26;;;;;;;1.17;1.08;;;14.80;99.90;;;;;;4979145;28;20088;-82
2021/07/06 00:54:52;;;;;;;3.60;1.23;;;14.70;99.90;;;;;;4982495;28;20069;-82
2021/07/06 00:57:28;;;;;;;2.38;1.40;;;14.70;99.90;;;;;;4992275;28;20026;-82
2021/07/06 00:59:58;;;;;;;1.00;1.00;;;14.70;99.90;;;;;;4967319;28;20041;-82
2021/07/06 01:02:25;;;;;;;1.40;1.30;;;14.60;99.90;;;;;;4990262;28;20041;-82
2021/07/06 01:04:51;;;;;;;1.98;1.20;;;14.60;99.90;;;;;;4966718;28;20053;-82
2021/07/06 01:07:17;;;;;;;1.20;1.10;;;14.50;99.90;;;;;;4964346;28;20035;-82
2021/07/06 01:09:43;;;;;;;1.27;1.17;;;14.50;99.90;;;;;;4985765;28;20035;-82
2021/07/06 01:12:10;;;;;;;1.40;1.30;;;14.60;99.90;;;;;;4970597;28;20038;-82
2021/07/06 01:14:36;;;;;;;2.42;1.17;;;14.60;99.90;;;;;;4988593;28;20034;-82
2021/07/06 01:17:03;;;;;;;1.35;1.25;;;14.60;99.90;;;;;;4986214;28;20041;-82
2021/07/06 01:19:29;;;;;;;1.17;1.08;;;14.60;99.90;;;;;;4985906;28;20035;-82
2021/07/06 01:21:55;;;;;;;1.90;0.93;;;14.60;99.90;;;;;;4983698;28;20042;-82
2021/07/06 01:24:20;;;;;;;1.83;1.65;;;14.60;99.90;;;;;;4986079;28;20037;-82
2021/07/06 01:26:52;;;;;;;1.10;0.80;;;14.60;99.90;;;;;;4987385;28;20489;-82
2021/07/06 01:29:20;;;;;;;1.42;1.00;;;14.50;99.90;;;;;;4990412;28;20545;-82
2021/07/06 01:31:50;;;;;;;1.27;1.10;;;14.50;99.90;;;;;;4978352;28;20045;-81
2021/07/06 01:34:17;;;;;;;1.15;1.05;;;14.50;99.90;;;;;;4980184;28;20070;-81
2021/07/06 01:36:45;;;;;;;1.08;0.90;;;14.50;99.90;;;;;;4983184;28;20035;-82
2021/07/06 01:39:11;;;;;;;2.65;1.00;;;14.50;99.90;;;;;;4985892;28;20030;-82
2021/07/06 01:41:41;;;;;;;1.30;1.20;;;14.50;99.90;;;;;;4977831;28;20092;-82
2021/07/06 01:44:25;;;;;;;1.90;1.20;;;14.60;99.90;;;;;;4987188;28;20039;-83
2021/07/06 01:46:51;;;;;;;1.98;1.10;;;14.50;99.90;;;;;;4967515;28;20042;-82
2021/07/06 01:49:18;;;;;;;1.00;0.90;;;14.50;99.90;;;;;;4984348;28;20142;-82
2021/07/06 01:51:45;;;;;;;0.80;0.80;;;14.50;99.90;;;;;;4983932;28;20042;-82
2021/07/06 01:54:12;;;;;;;0.90;0.80;;;14.50;99.90;;;;;;4987841;28;20413;-82
2021/07/06 01:56:43;;;;;;;0.80;0.80;;;14.50;99.90;;;;;;4980618;28;20058;-82
2021/07/06 01:59:09;;;;;;;1.60;1.00;;;14.50;99.90;;;;;;4985759;28;20778;-82
2021/07/06 02:01:36;;;;;;;0.93;0.93;;;14.50;99.90;;;;;;4968574;28;20035;-82
2021/07/06 02:04:03;;;;;;;1.23;1.13;;;14.40;99.90;;;;;;4945866;28;20083;-82
2021/07/06 02:06:29;;;;;;;4.57;1.23;;;14.40;99.90;;;;;;4983019;28;20110;-82
2021/07/06 02:08:55;;;;;;;1.08;1.05;;;14.40;99.90;;;;;;4963922;28;20126;-82
2021/07/06 02:11:21;;;;;;;0.95;0.93;;;14.30;99.90;;;;;;4973841;28;20042;-82
2021/07/06 02:13:46;;;;;;;1.10;1.00;;;14.30;99.90;;;;;;4989398;28;20117;-82
2021/07/06 02:16:12;;;;;;;1.40;1.30;;;14.30;99.90;;;;;;4981195;28;20121;-82
2021/07/06 02:18:42;;;;;;;1.20;0.98;;;14.20;99.90;;;;;;4993907;28;20026;-82
2021/07/06 02:21:16;;;;;;;1.38;1.10;;;14.20;99.90;;;;;;4944785;28;20069;-82
2021/07/06 02:23:42;;;;;;;1.13;1.05;;;14.10;99.90;;;;;;4956495;28;20486;-82
2021/07/06 02:26:09;;;;;;;1.15;1.05;;;14.20;99.90;;;;;;4991219;28;20042;-82
2021/07/06 02:28:35;;;;;;;1.23;1.00;;;14.20;99.90;;;;;;4988600;28;20027;-81
2021/07/06 02:31:03;;;;;;;0.98;0.98;;;14.20;99.90;;;;;;4989453;28;20556;-82
2021/07/06 02:33:32;;;;;;;1.30;1.20;;;14.20;99.90;;;;;;4967867;28;20059;-82
2021/07/06 02:36:00;;;;;;;1.30;1.23;;;14.20;99.90;;;;;;4981104;28;20653;-82
2021/07/06 02:38:26;;;;;;;1.40;1.30;;;14.20;99.90;;;;;;4990532;28;20047;-81
2021/07/06 02:40:52;;;;;;;1.80;1.33;;;14.20;99.90;;;;;;4974876;28;20121;-82
2021/07/06 02:43:18;;;;;;;2.42;1.42;;;14.20;99.90;;;;;;4984185;28;20034;-82
2021/07/06 02:45:45;;;;;;;2.75;1.60;;;14.20;99.90;;;;;;4978003;28;20034;-81
2021/07/06 02:48:11;;;;;;;1.70;1.60;;;14.20;99.90;;;;;;4953699;28;20031;-81
2021/07/06 02:50:39;;;;;;;2.47;1.27;;;14.20;99.90;;;;;;4971894;28;20042;-82
2021/07/06 02:53:06;;;;;;;3.55;2.20;;;14.20;99.90;;;;;;4980484;28;20498;-82
2021/07/06 02:55:32;;;;;;;1.98;1.77;;;14.20;99.90;;;;;;4984482;28;20084;-81
2021/07/06 02:57:57;;;;;;;1.92;1.65;;;14.30;99.90;;;;;;4960767;28;20027;-82
2021/07/06 03:00:25;;;;;;;2.58;1.75;;;14.30;99.90;;;;;;4967614;28;20038;-82
2021/07/06 03:02:55;;;;;;;1.98;1.80;;;14.30;99.90;;;;;;4984089;28;20023;-84
2021/07/06 03:05:22;;;;;;;3.90;1.67;;;14.30;99.90;;;;;;4982846;28;20027;-81
2021/07/06 03:07:49;;;;;;;2.30;2.10;;;14.30;99.90;;;;;;4975205;28;20033;-81
2021/07/06 03:10:17;;;;;;;1.90;1.75;;;14.30;99.90;;;;;;4966412;28;20031;-81
2021/07/06 03:12:43;;;;;;;2.47;2.28;;;14.30;99.90;;;;;;4983585;28;20045;-82
2021/07/06 03:15:12;;;;;;;3.00;1.70;;;14.40;99.90;;;;;;4970258;28;20110;-81
2021/07/06 03:17:38;;;;;;;7.85;2.80;;;14.30;99.90;;;;;;4989858;28;20452;-81
2021/07/06 03:20:06;;;;;;;2.50;2.10;;;14.30;99.90;;;;;;4957115;28;20065;-81
2021/07/06 03:22:32;;;;;;;2.60;2.35;;;14.30;99.90;;;;;;4987997;28;20076;-81
2021/07/06 03:24:58;;;;;;;2.35;2.15;;;14.30;99.90;;;;;;4972869;28;20062;-81
2021/07/06 03:27:24;;;;;;;3.58;3.05;;;14.30;99.90;;;;;;4977410;28;20433;-81
2021/07/06 03:29:50;;;;;;;4.10;2.13;;;14.30;99.90;;;;;;4981512;28;20026;-81
2021/07/06 03:32:17;;;;;;;3.38;2.67;;;14.30;99.90;;;;;;4969080;28;20039;-81
2021/07/06 03:34:43;;;;;;;2.72;2.42;;;14.20;99.90;;;;;;4981398;28;20027;-81
2021/07/06 03:37:09;;;;;;;3.35;2.30;;;14.20;99.90;;;;;;4975481;28;20081;-81
2021/07/06 03:39:36;;;;;;;2.95;2.30;;;14.20;99.90;;;;;;4981482;28;20030;-81
2021/07/06 03:42:04;;;;;;;2.45;2.25;;;14.30;99.90;;;;;;4970383;28;20026;-81
2021/07/06 03:44:30;;;;;;;2.92;2.50;;;14.30;99.90;;;;;;4988543;28;20056;-82
2021/07/06 03:46:56;;;;;;;3.30;2.65;;;14.30;99.90;;;;;;4972385;28;20493;-82
2021/07/06 03:49:22;;;;;;;4.53;2.70;;;14.20;99.90;;;;;;4954787;28;20421;-81
2021/07/06 03:51:48;;;;;;;2.97;2.70;;;14.30;99.90;;;;;;4964387;28;20066;-80
2021/07/06 03:54:14;;;;;;;3.90;3.00;;;14.30;99.90;;;;;;4969038;28;20022;-81
2021/07/06 03:56:39;;;;;;;3.08;2.78;;;14.20;99.90;;;;;;4966879;28;20426;-81
2021/07/06 03:59:05;;;;;;;4.25;2.72;;;14.20;99.90;;;;;;4964108;28;20050;-81
2021/07/06 04:01:32;;;;;;;4.05;2.60;;;14.20;99.90;;;;;;4984209;28;20067;-81
2021/07/06 04:03:58;;;;;;;2.90;2.60;;;14.20;99.90;;;;;;4987525;28;20039;-81
2021/07/06 04:06:24;;;;;;;3.67;2.78;;;14.30;99.90;;;;;;4941892;28;20039;-81
2021/07/06 04:08:49;;;;;;;2.40;2.20;;;14.30;99.90;;;;;;4953909;28;20125;-83
2021/07/06 04:11:15;;;;;;;3.85;2.42;;;14.30;99.90;;;;;;4942289;28;20125;-81
2021/07/06 04:13:41;;;;;;;3.08;2.55;;;14.20;99.90;;;;;;4979049;28;20026;-82
2021/07/06 04:16:07;;;;;;;2.65;2.45;;;14.30;99.90;;;;;;4978756;28;20085;-81
2021/07/06 04:18:33;;;;;;;2.95;2.70;;;14.30;99.90;;;;;;4970481;28;20027;-82
2021/07/06 04:20:59;;;;;;;3.53;2.50;;;14.30;99.90;;;;;;4962170;28;20049;-81
2021/07/06 04:23:24;;;;;;;3.75;2.72;;;14.40;99.90;;;;;;4984032;28;20378;-81
2021/07/06 04:25:50;;;;;;;3.13;2.80;;;14.50;99.90;;;;;;4962515;28;20122;-82
2021/07/06 04:28:16;;;;;;;2.53;2.03;;;14.50;99.90;;;;;;4981831;28;20121;-81
2021/07/06 04:30:42;;;;;;;2.50;2.30;;;14.60;99.90;;;;;;4971189;28;20122;-82
2021/07/06 04:33:09;;;;;;;2.60;2.40;;;14.60;99.90;;;;;;4971815;28;20127;-81
2021/07/06 04:35:35;;;;;;;3.15;2.38;;;14.70;99.90;;;;;;4970450;28;20054;-81
2021/07/06 04:38:01;;;;;;;2.08;1.92;;;14.70;99.90;;;;;;4985696;28;20058;-81
2021/07/06 04:40:26;;;;;;;3.42;1.70;;;14.70;99.90;;;;;;4964655;28;20031;-81
2021/07/06 04:42:55;;;;;;;2.50;2.30;;;14.70;99.90;;;;;;4963657;28;20506;-82
2021/07/06 04:45:21;;;;;;;4.78;2.45;;;14.80;99.90;;;;;;4964603;28;20042;-83
2021/07/06 04:47:47;;;;;;;2.75;2.30;;;14.90;99.90;;;;;;4979636;28;20394;-82
2021/07/06 04:50:14;;;;;;;3.97;2.25;;;14.90;99.90;;;;;;4966082;28;20133;-81
2021/07/06 04:52:44;;;;;;;3.13;2.58;;;15.00;99.90;;;;;;4979555;28;20062;-82
2021/07/06 04:55:10;;;;;;;2.58;2.38;;;15.10;99.90;;;;;;4965416;28;20122;-81
2021/07/06 04:57:36;;;;;;;2.80;2.60;;;15.10;99.90;;;;;;4969541;28;20030;-82
2021/07/06 05:00:03;;;;;;;4.05;2.40;;;15.20;99.90;;;;;;4988578;28;20492;-82
2021/07/06 05:02:30;;;;;;;2.97;2.38;;;15.30;99.90;;;;;;4965895;28;20073;-81
2021/07/06 05:04:56;;;;;;;2.53;2.33;;;15.30;99.90;;;;;;4970578;28;20027;-82
2021/07/06 05:07:22;;;;;;;3.13;2.83;;;15.40;99.90;;;;;;4971663;28;20509;-81
2021/07/06 05:09:48;;;;;;;6.60;2.15;;;15.50;99.90;;;;;;4966330;28;20417;-82
2021/07/06 05:12:13;;;;;;;2.90;2.60;;;15.50;99.90;;;;;;4985211;28;20034;-81
2021/07/06 05:14:39;;;;;;;3.25;2.08;;;15.60;99.90;;;;;;4961816;28;20031;-83
2021/07/06 05:17:05;;;;;;;2.40;2.20;;;15.70;99.90;;;;;;4966474;28;20039;-82
2021/07/06 05:19:31;;;;;;;2.58;2.38;;;15.80;99.90;;;;;;4952859;28;20066;-82
2021/07/06 05:21:57;;;;;;;2.67;2.47;;;15.90;99.90;;;;;;4960682;28;20038;-80
2021/07/06 05:24:22;;;;;;;3.17;2.00;;;16.00;99.90;;;;;;4970426;28;20045;-82
2021/07/06 05:26:48;;;;;;;2.33;2.05;;;16.00;99.90;;;;;;4951527;28;20032;-82
2021/07/06 05:29:15;;;;;;;2.08;1.92;;;16.20;99.90;;;;;;4970926;28;20130;-81
2021/07/06 05:31:41;;;;;;;3.22;1.95;;;16.30;99.90;;;;;;4984570;28;20034;-82
2021/07/06 05:34:07;;;;;;;3.05;2.03;;;16.50;99.90;;;;;;4963947;28;20039;-80
2021/07/06 05:36:33;;;;;;;4.00;2.22;;;16.70;99.90;;;;;;4980265;28;20041;-81
2021/07/06 05:38:58;;;;;;;2.80;1.73;;;16.90;99.90;;;;;;4970865;28;20053;-81
2021/07/06 05:41:25;;;;;;;3.90;1.75;;;17.20;99.90;;;;;;4963144;28;20042;-81
2021/07/06 05:43:51;;;;;;;2.72;1.77;;;17.50;99.90;;;;;;4961244;28;20035;-83
2021/07/06 05:46:18;;;;;;;1.90;1.60;;;17.80;99.90;;;;;;4968506;28;20061;-83
2021/07/06 05:48:45;;;;;;;2.30;1.70;;;18.40;99.90;;;;;;4968072;28;20034;-82
2021/07/06 05:51:11;;;;;;;1.88;1.42;;;18.90;99.90;;;;;;4987332;28;20034;-82
2021/07/06 05:53:37;;;;;;;2.38;1.70;;;19.30;99.90;;;;;;4945064;28;20035;-81
2021/07/06 05:56:03;;;;;;;1.63;1.52;;;19.70;99.90;;;;;;4966808;28;20078;-82
2021/07/06 05:58:29;;;;;;;1.58;1.48;;;19.90;99.90;;;;;;4989434;28;20048;-83
2021/07/06 06:00:55;;;;;;;1.25;1.15;;;20.30;99.90;;;;;;4973427;28;20039;-82
2021/07/06 06:03:20;;;;;;;1.40;1.30;;;20.40;99.90;;;;;;4973259;28;20034;-84
2021/07/06 06:05:47;;;;;;;2.95;1.15;;;20.40;99.90;;;;;;4984131;28;20038;-83
2021/07/06 06:08:16;;;;;;;1.95;1.10;;;20.60;99.90;;;;;;4974347;28;20042;-81
2021/07/06 06:10:42;;;;;;;3.70;1.20;;;20.80;99.90;;;;;;4981877;28;20034;-83
2021/07/06 06:13:08;;;;;;;0.98;0.93;;;20.50;99.90;;;;;;4974813;28;20031;-82
2021/07/06 06:15:34;;;;;;;1.77;1.00;;;20.60;99.90;;;;;;4969317;28;20110;-83
2021/07/06 06:18:00;;;;;;;2.35;1.20;;;20.90;99.90;;;;;;4973572;28;20046;-83
2021/07/06 06:20:26;;;;;;;2.35;0.90;;;21.40;99.90;;;;;;4940768;28;20039;-83
2021/07/06 06:22:51;;;;;;;2.38;1.20;;;21.30;99.90;;;;;;4978186;28;20035;-81
2021/07/06 06:25:17;;;;;;;1.80;1.13;;;21.70;99.90;;;;;;4991183;28;20108;-81
2021/07/06 06:27:43;;;;;;;1.15;1.00;;;21.90;99.90;;;;;;4973002;28;20041;-79
2021/07/06 06:30:10;;;;;;;1.27;1.17;;;22.10;99.90;;;;;;4970228;28;20027;-80
2021/07/06 06:32:36;;;;;;;1.00;1.00;;;22.10;99.90;;;;;;4989122;28;20022;-82
2021/07/06 06:35:03;;;;;;;1.50;1.30;;;22.50;99.90;;;;;;4977799;28;20539;-79
2021/07/06 06:37:29;;;;;;;1.40;1.30;;;22.60;99.90;;;;;;4990342;28;20493;-80
2021/07/06 06:39:55;;;;;;;1.95;1.08;;;23.10;99.90;;;;;;4950410;28;20035;-79
2021/07/06 06:42:20;;;;;;;3.10;1.10;;;23.60;99.90;;;;;;4961517;28;20042;-82
2021/07/06 06:44:46;;;;;;;1.60;1.15;;;23.80;99.90;;;;;;4953962;28;20035;-80
2021/07/06 06:47:12;;;;;;;1.10;1.00;;;23.70;99.90;;;;;;4972466;28;20061;-79
2021/07/06 06:49:37;;;;;;;1.15;1.05;;;23.40;99.90;;;;;;4987349;28;20142;-80
2021/07/06 06:52:03;;;;;;;0.93;0.90;;;23.60;99.90;;;;;;4976540;28;20049;-80
2021/07/06 06:54:31;;;;;;;0.90;0.90;;;23.40;99.90;;;;;;4970507;28;20034;-79
2021/07/06 06:56:58;;;;;;;1.00;0.90;;;23.70;99.90;;;;;;4981392;28;20038;-80
2021/07/06 06:59:25;;;;;;;1.08;1.08;;;23.40;99.90;;;;;;4952554;28;20078;-80
2021/07/06 07:02:16;;;;;;;1.00;0.95;;;23.30;99.90;;;;;;4974510;28;20076;-81
2021/07/06 07:04:37;;;;;;;1.00;0.90;;;23.90;99.90;;;;;;4988001;28;20030;-80
2021/07/06 07:07:03;;;;;;;1.75;1.10;;;24.00;99.90;;;;;;4961817;28;20405;-83
2021/07/06 07:09:29;;;;;;;1.55;1.05;;;24.50;99.90;;;;;;4953500;28;20085;-83
2021/07/06 07:11:54;;;;;;;0.55;0.55;;;24.80;99.90;;;;;;4978654;28;20030;-84
2021/07/06 07:14:20;;;;;;;0.90;0.90;;;25.00;99.90;;;;;;4979731;28;20023;-84
2021/07/06 07:16:47;;;;;;;2.38;0.90;;;24.90;99.90;;;;;;4990506;28;20026;-84
2021/07/06 07:19:13;;;;;;;1.60;0.90;;;25.10;99.90;;;;;;4971710;28;20094;-81
2021/07/06 07:21:39;;;;;;;1.38;0.80;;;25.30;99.90;;;;;;4984699;28;20436;-82
2021/07/06 07:24:05;;;;;;;0.77;0.75;;;25.50;99.90;;;;;;4982291;28;20057;-82
2021/07/06 07:26:31;;;;;;;1.10;1.00;;;25.30;99.90;;;;;;4969539;28;20146;-81
2021/07/06 07:28:57;;;;;;;1.05;0.98;;;24.80;99.90;;;;;;4981796;28;20038;-82
2021/07/06 07:31:23;;;;;;;1.08;0.98;;;24.40;99.90;;;;;;4975775;28;20382;-83
2021/07/06 07:33:48;;;;;;;2.40;1.00;;;23.80;99.90;;;;;;4976013;28;20042;-82
2021/07/06 07:36:14;;;;;;;1.92;1.00;;;23.40;99.90;;;;;;4986793;28;20031;-81
2021/07/06 07:38:40;;;;;;;6.22;0.98;;;23.50;99.90;;;;;;4985058;28;20038;-82
2021/07/06 07:41:06;;;;;;;3.35;1.00;;;24.10;99.90;;;;;;4971691;28;20042;-82
2021/07/06 07:43:31;;;;;;;0.60;0.60;;;25.10;99.90;;;;;;4980008;28;20041;-82
2021/07/06 07:45:57;;;;;;;1.85;0.70;;;25.60;99.90;;;;;;4979290;28;20046;-82
2021/07/06 07:48:23;;;;;;;0.93;0.93;;;25.30;99.90;;;;;;4982861;28;20046;-82
2021/07/06 07:50:49;;;;;;;0.80;0.80;;;24.80;99.90;;;;;;4954389;28;20027;-81
2021/07/06 07:53:14;;;;;;;1.65;0.80;;;24.70;99.90;;;;;;4984161;28;20053;-85
2021/07/06 07:55:40;;;;;;;0.68;0.57;;;24.70;99.90;;;;;;4988008;28;20026;-83
2021/07/06 07:58:06;;;;;;;3.80;1.00;;;24.20;99.90;;;;;;4970168;28;20042;-83
2021/07/06 08:00:31;;;;;;;0.80;0.80;;;23.80;99.90;;;;;;4972835;28;20707;-82
2021/07/06 08:02:59;;;;;;;0.60;0.60;;;24.00;99.90;;;;;;4976951;28;20046;-82
2021/07/06 08:05:26;;;;;;;0.50;0.50;;;24.40;99.90;;;;;;4966163;28;20504;-82
2021/07/06 08:07:52;;;;;;;0.98;0.90;;;24.40;99.90;;;;;;4986327;28;20033;-80
2021/07/06 08:10:18;;;;;;;0.95;0.85;;;24.40;99.90;;;;;;4982056;28;20058;-81
2021/07/06 08:12:44;;;;;;;2.40;0.88;;;24.40;99.90;;;;;;4975343;28;20085;-81
2021/07/06 08:15:10;;;;;;;0.82;0.77;;;24.70;99.90;;;;;;4963608;28;20037;-81
2021/07/06 08:17:36;;;;;;;1.70;0.90;;;24.60;99.90;;;;;;4982253;28;20031;-84
2021/07/06 08:20:04;;;;;;;0.80;0.80;;;24.60;99.90;;;;;;4934828;28;20468;-83
2021/07/06 08:22:30;;;;;;;2.13;1.10;;;24.80;99.90;;;;;;4964077;28;20062;-82
2021/07/06 08:24:56;;;;;;;0.90;0.80;;;24.60;99.90;;;;;;4962376;28;20026;-82
2021/07/06 08:27:22;;;;;;;1.33;0.90;;;24.60;99.90;;;;;;4982626;28;20023;-83
2021/07/06 08:29:48;;;;;;;1.02;0.95;;;24.60;99.90;;;;;;4953155;28;20053;-82
2021/07/06 08:32:14;;;;;;;1.23;0.80;;;24.70;99.90;;;;;;4983372;28;20492;-81
2021/07/06 08:34:39;;;;;;;1.48;0.70;;;24.60;99.90;;;;;;4980456;28;20051;-82
2021/07/06 08:37:05;;;;;;;1.13;1.02;;;24.90;99.90;;;;;;4938542;28;20061;-82
2021/07/06 08:39:31;;;;;;;1.48;0.98;;;25.00;99.90;;;;;;4954572;28;20548;-83
2021/07/06 08:41:57;;;;;;;1.35;1.00;;;25.20;99.90;;;;;;4956810;28;20113;-82
2021/07/06 08:44:23;;;;;;;0.70;0.70;;;25.30;99.90;;;;;;4951283;28;20057;-81
2021/07/06 08:46:50;;;;;;;0.88;0.88;;;25.20;99.10;;;;;;4981816;28;20053;-82
2021/07/06 08:49:19;;;;;;;1.52;0.70;;;25.30;99.90;;;;;;4985311;28;20035;-82
2021/07/06 08:51:48;;;;;;;1.02;0.98;;;25.20;99.90;;;;;;4978949;28;20031;-82
2021/07/06 08:54:14;;;;;;;0.90;0.90;;;25.60;99.70;;;;;;4961310;28;20746;-82
2021/07/06 08:56:39;;;;;;;1.13;0.80;;;25.40;98.00;;;;;;4970459;28;20118;-83
2021/07/06 08:59:05;;;;;;;1.13;0.85;;;25.30;99.90;;;;;;4959789;28;20045;-82
2021/07/06 09:01:31;;;;;;;1.20;0.65;;;25.60;98.60;;;;;;4966768;28;20042;-82
2021/07/06 09:03:59;;;;;;;0.68;0.68;;;25.70;98.10;;;;;;4975282;28;20030;-81
2021/07/06 09:06:30;;;;;;;0.75;0.70;;;25.60;97.20;;;;;;4952580;28;20101;-82
2021/07/06 09:09:19;;;;;;;1.92;0.77;;;25.40;97.90;;;;;;4974315;28;20039;-82
2021/07/06 09:11:47;;;;;;;0.88;0.70;;;25.30;97.10;;;;;;4981417;28;20034;-82
2021/07/06 09:14:13;;;;;;;0.75;0.75;;;25.30;99.00;;;;;;4967499;28;20198;-82
2021/07/06 09:16:40;;;;;;;1.17;0.75;;;25.40;98.90;;;;;;4982314;28;20031;-82
2021/07/06 09:19:25;;;;;;;7.20;1.10;;;25.40;97.50;;;;;;4984830;28;20390;-82
2021/07/06 09:22:11;;;;;;;0.85;0.80;;;25.30;98.00;;;;;;4962024;28;20035;-81
2021/07/06 09:24:38;;;;;;;0.70;0.70;;;25.20;97.70;;;;;;4982919;28;20130;-83
2021/07/06 09:27:28;;;;;;;0.75;0.75;;;25.10;97.90;;;;;;4972754;28;20046;-83
2021/07/06 09:30:09;;;;;;;0.80;0.70;;;24.70;98.10;;;;;;4971556;28;20034;-82
2021/07/06 09:32:38;;;;;;;1.45;0.73;;;24.90;99.30;;;;;;4984472;28;20022;-82
2021/07/06 09:35:08;;;;;;;0.65;0.65;;;25.10;99.90;;;;;;4964956;28;20042;-82
2021/07/06 09:37:43;;;;;;;1.27;0.90;;;25.30;99.90;;;;;;4954832;28;20033;-82
2021/07/06 09:40:27;;;;;;;1.13;0.90;;;25.30;99.60;;;;;;4984899;28;20096;-82
2021/07/06 09:43:12;;;;;;;4.03;0.80;;;25.40;99.60;;;;;;4971851;28;20098;-82
2021/07/06 09:45:38;;;;;;;1.80;0.60;;;25.60;99.80;;;;;;4985954;28;20117;-82
2021/07/06 09:48:08;;;;;;;1.35;0.80;;;25.70;98.90;;;;;;4984809;28;20078;-82
2021/07/06 09:50:33;;;;;;;0.93;0.70;;;25.80;99.30;;;;;;4961706;28;20428;-82
2021/07/06 09:53:03;;;;;;;0.82;0.70;;;25.90;99.90;;;;;;4953830;28;20118;-82
2021/07/06 09:55:32;;;;;;;2.83;0.70;;;25.80;98.00;;;;;;4979074;28;20023;-82
2021/07/06 09:58:04;;;;;;;1.02;0.80;;;25.70;98.60;;;;;;4987058;28;20053;-82
2021/07/06 10:00:32;;;;;;;7.35;2.25;;;25.70;98.70;;;;;;4985960;28;20039;-82
2021/07/06 10:03:01;;;;;;;1.42;0.73;;;25.80;99.50;;;;;;4976208;28;20381;-82
2021/07/06 10:05:28;;;;;;;1.05;0.80;;;25.70;96.40;;;;;;4982708;28;20034;-81
2021/07/06 10:07:55;;;;;;;1.58;0.98;;;25.60;97.90;;;;;;4981504;28;20543;-81
2021/07/06 10:10:22;;;;;;;2.15;1.13;;;25.60;98.70;;;;;;4967404;28;20054;-80
2021/07/06 10:12:49;;;;;;;0.70;0.70;;;25.80;99.90;;;;;;4983370;28;20037;-82
2021/07/06 10:15:17;;;;;;;0.60;0.60;;;25.80;98.70;;;;;;4968052;28;20042;-81
2021/07/06 10:17:44;;;;;;;1.40;0.82;;;25.70;98.80;;;;;;4990990;28;20026;-81
2021/07/06 10:20:12;;;;;;;0.82;0.75;;;25.80;97.70;;;;;;4985842;28;20031;-81
2021/07/06 10:22:38;;;;;;;1.10;0.70;;;26.00;98.90;;;;;;4982073;28;20124;-80
2021/07/06 10:25:07;;;;;;;1.33;0.85;;;26.00;98.00;;;;;;4985508;28;20034;-80
2021/07/06 10:27:37;;;;;;;0.70;0.70;;;26.20;97.90;;;;;;4984716;28;20462;-81
2021/07/06 10:30:15;;;;;;;2.38;0.77;;;26.30;96.40;;;;;;4982731;28;20084;-80
2021/07/06 10:32:53;;;;;;;1.52;0.70;;;26.50;98.60;;;;;;4972067;28;20030;-81
2021/07/06 10:35:37;;;;;;;0.60;0.60;;;26.50;93.90;;;;;;4980738;28;20031;-81
2021/07/06 10:38:32;;;;;;;0.70;0.70;;;26.50;94.80;;;;;;4966880;28;20022;-81
2021/07/06 10:41:03;;;;;;;2.78;0.80;;;26.40;94.70;;;;;;4983187;28;20057;-81
2021/07/06 10:43:29;;;;;;;1.00;0.73;;;26.30;95.20;;;;;;4984111;28;20121;-82
2021/07/06 10:45:54;;;;;;;0.68;0.68;;;26.10;96.80;;;;;;4978087;28;20062;-83
2021/07/06 10:48:41;;;;;;;0.60;0.60;;;26.00;94.70;;;;;;4975735;28;20049;-84
2021/07/06 10:51:07;;;;;;;0.70;0.63;;;26.10;95.40;;;;;;4986803;28;20038;-83
2021/07/06 10:53:33;;;;;;;0.60;0.60;;;26.20;97.50;;;;;;4985043;28;20477;-82
2021/07/06 10:56:10;;;;;;;1.73;0.80;;;26.30;95.00;;;;;;4992177;28;20030;-82
2021/07/06 10:59:00;;;;;;;0.90;0.73;;;26.20;96.10;;;;;;4979357;28;20416;-81
2021/07/06 11:01:47;;;;;;;1.48;0.70;;;26.20;94.10;;;;;;4977826;28;20306;-82
2021/07/06 11:04:40;;;;;;;1.15;0.77;;;26.30;94.90;;;;;;4992120;28;20038;-82
2021/07/06 11:07:13;;;;;;;0.63;0.63;;;26.40;96.00;;;;;;4973808;28;20405;-81
2021/07/06 11:09:39;;;;;;;0.70;0.60;;;26.60;97.80;;;;;;4970247;28;20092;-81
2021/07/06 11:12:24;;;;;;;0.70;0.70;;;26.80;99.10;;;;;;4988445;28;20034;-81
2021/07/06 11:15:03;;;;;;;1.15;0.70;;;26.90;94.90;;;;;;4983057;28;20523;-83
2021/07/06 11:17:42;;;;;;;0.90;0.70;;;27.00;93.10;;;;;;4970438;28;20114;-82
2021/07/06 11:20:12;;;;;;;1.20;0.60;;;26.90;94.60;;;;;;4980584;28;20073;-81
2021/07/06 11:22:44;;;;;;;0.60;0.60;;;26.90;93.50;;;;;;4980426;28;20136;-83
2021/07/06 11:25:20;;;;;;;0.88;0.50;;;27.10;94.90;;;;;;4980416;28;20031;-82
2021/07/06 11:28:15;;;;;;;0.75;0.75;;;27.20;92.30;;;;;;4978068;28;20097;-82
2021/07/06 11:30:50;;;;;;;1.02;0.68;;;27.10;92.20;;;;;;4973899;28;20030;-81
2021/07/06 11:33:31;;;;;;;0.50;0.50;;;27.20;93.40;;;;;;4975767;28;20034;-83
2021/07/06 11:36:06;;;;;;;0.90;0.68;;;27.40;95.30;;;;;;4959436;28;20030;-81
2021/07/06 11:38:41;;;;;;;1.27;0.52;;;27.50;92.40;;;;;;4982291;28;21197;-82
2021/07/06 11:41:10;;;;;;;1.30;0.63;;;27.70;92.70;;;;;;4976488;28;20428;-82
2021/07/06 11:43:36;;;;;;;0.57;0.55;;;27.70;95.00;;;;;;4988896;28;20026;-82
2021/07/06 11:46:06;;;;;;;0.60;0.60;;;27.80;94.30;;;;;;4953643;28;20406;-82
2021/07/06 11:48:34;;;;;;;0.77;0.50;;;28.00;95.90;;;;;;4976592;28;20929;-82
2021/07/06 11:51:03;;;;;;;0.98;0.57;;;28.20;94.70;;;;;;4982999;28;20122;-82
2021/07/06 11:53:43;;;;;;;0.95;0.60;;;28.50;97.00;;;;;;4983488;28;20062;-81
2021/07/06 11:56:11;;;;;;;0.50;0.50;;;28.40;92.40;;;;;;4980810;28;20069;-82
2021/07/06 11:58:37;;;;;;;0.55;0.50;;;28.50;94.60;;;;;;4952157;28;20034;-82
2021/07/06 12:01:09;;;;;;;0.30;0.30;;;28.50;95.10;;;;;;4983726;28;20034;-82
2021/07/06 12:03:37;;;;;;;0.52;0.50;;;28.50;94.40;;;;;;4962449;28;20030;-81
2021/07/06 12:06:10;;;;;;;3.15;0.50;;;28.60;95.30;;;;;;4991908;28;20514;-81
2021/07/06 12:08:37;;;;;;;2.65;1.00;;;28.50;92.50;;;;;;4965315;28;20038;-81
2021/07/06 12:11:06;;;;;;;5.60;2.58;;;28.40;93.90;;;;;;4986726;28;20038;-81
2021/07/06 12:13:34;;;;;;;3.80;1.38;;;28.30;93.60;;;;;;4995018;28;20457;-82
2021/07/06 12:16:04;;;;;;;2.03;1.00;;;28.20;94.70;;;;;;4974210;28;20042;-82
2021/07/06 12:18:32;;;;;;;1.75;1.08;;;27.90;94.30;;;;;;4981989;28;20048;-82
2021/07/06 12:21:08;;;;;;;0.60;0.60;;;27.40;93.90;;;;;;4985064;28;20027;-82
2021/07/06 12:23:44;;;;;;;0.63;0.57;;;27.00;95.40;;;;;;4981431;28;20030;-81
2021/07/06 12:26:10;;;;;;;4.35;1.00;;;26.70;96.90;;;;;;4969706;28;20035;-82
2021/07/06 12:28:39;;;;;;;1.48;0.90;;;26.50;99.10;;;;;;4961623;28;20034;-83
2021/07/06 12:31:22;;;;;;;0.85;0.60;;;26.30;99.10;;;;;;4971998;28;20035;-82
2021/07/06 12:34:09;;;;;;;0.45;0.45;;;26.30;99.90;;;;;;4966079;28;20492;-82
2021/07/06 12:36:39;;;;;;;1.48;0.43;;;26.50;99.60;;;;;;4978132;28;20022;-82
2021/07/06 12:39:18;;;;;;;0.85;0.70;;;26.50;99.90;;;;;;4985608;28;20077;-81
2021/07/06 12:41:50;;;;;;;2.92;0.55;;;26.90;99.90;;;;;;4977816;28;20085;-82
2021/07/06 12:44:44;;;;;;;0.60;0.55;;;27.10;99.90;;;;;;4962994;28;20038;-82
2021/07/06 12:47:31;;;;;;;0.40;0.40;;;27.40;99.50;;;;;;4966590;28;20050;-82
2021/07/06 12:50:05;;;;;;;0.60;0.60;;;27.50;98.20;;;;;;4948357;28;20130;-82
2021/07/06 12:52:43;;;;;;;0.73;0.70;;;27.70;98.00;;;;;;4976987;28;20046;-82
2021/07/06 12:55:27;;;;;;;1.02;0.60;;;28.00;98.10;;;;;;4969592;28;20037;-81